sensor_id;sensor_type;location;lat;lon;timestamp;P1;durP1;ratioP1;P2;durP2;ratioP2
7843;SDS011;3967;48.702;9.326;2023-08-24T00:00:21;4.87;;;4.03;;
7843;SDS011;3967;48.702;9.326;2023-08-24T00:02:48;5.17;;;3.80;;
7843;SDS011;3967;48.702;9.326;2023-08-24T00:05:14;6.43;;;3.73;;
7843;SDS011;3967;48.702;9.326;2023-08-24T00:07:41;6.93;;;3.87;;
7843;SDS011;3967;48.702;9.326;2023-08-24T00:10:08;4.60;;;4.03;;
7843;SDS011;3967;48.702;9.326;2023-08-24T00:12:35;6.97;;;4.13;;
7843;SDS011;3967;48.702;9.326;2023-08-24T00:15:02;4.13;;;3.83;;
7843;SDS011;3967;48.702;9.326;2023-08-24T00:17:30;6.70;;;4.77;;
7843;SDS011;3967;48.702;9.326;2023-08-24T00:19:57;5.20;;;4.70;;
7843;SDS011;3967;48.702;9.326;2023-08-24T00:22:24;4.50;;;4.07;;
7843;SDS011;3967;48.702;9.326;2023-08-24T00:24:51;5.13;;;3.90;;
7843;SDS011;3967;48.702;9.326;2023-08-24T00:27:17;5.90;;;3.87;;
7843;SDS011;3967;48.702;9.326;2023-08-24T00:29:44;7.47;;;3.63;;
7843;SDS011;3967;48.702;9.326;2023-08-24T00:32:11;3.97;;;3.63;;
7843;SDS011;3967;48.702;9.326;2023-08-24T00:34:37;4.53;;;4.10;;
7843;SDS011;3967;48.702;9.326;2023-08-24T00:37:04;4.40;;;4.00;;
7843;SDS011;3967;48.702;9.326;2023-08-24T00:39:31;4.73;;;4.07;;
7843;SDS011;3967;48.702;9.326;2023-08-24T00:41:58;4.63;;;4.00;;
7843;SDS011;3967;48.702;9.326;2023-08-24T00:44:25;5.70;;;4.53;;
7843;SDS011;3967;48.702;9.326;2023-08-24T00:46:52;4.30;;;3.90;;
7843;SDS011;3967;48.702;9.326;2023-08-24T00:49:19;5.87;;;3.87;;
7843;SDS011;3967;48.702;9.326;2023-08-24T00:51:47;7.53;;;3.90;;
7843;SDS011;3967;48.702;9.326;2023-08-24T00:54:14;4.87;;;4.20;;
7843;SDS011;3967;48.702;9.326;2023-08-24T00:56:42;5.23;;;4.73;;
7843;SDS011;3967;48.702;9.326;2023-08-24T00:59:09;4.20;;;3.90;;
7843;SDS011;3967;48.702;9.326;2023-08-24T01:01:35;4.00;;;3.70;;
7843;SDS011;3967;48.702;9.326;2023-08-24T01:04:03;4.23;;;3.70;;
7843;SDS011;3967;48.702;9.326;2023-08-24T01:06:30;7.20;;;4.13;;
7843;SDS011;3967;48.702;9.326;2023-08-24T01:08:57;9.40;;;4.50;;
7843;SDS011;3967;48.702;9.326;2023-08-24T01:16:50;4.77;;;4.00;;
7843;SDS011;3967;48.702;9.326;2023-08-24T01:19:42;4.30;;;4.00;;
7843;SDS011;3967;48.702;9.326;2023-08-24T01:22:54;4.67;;;4.27;;
7843;SDS011;3967;48.702;9.326;2023-08-24T01:27:39;5.90;;;4.90;;
7843;SDS011;3967;48.702;9.326;2023-08-24T01:30:08;5.20;;;4.70;;
7843;SDS011;3967;48.702;9.326;2023-08-24T01:32:35;7.10;;;5.13;;
7843;SDS011;3967;48.702;9.326;2023-08-24T01:35:08;5.07;;;4.43;;
7843;SDS011;3967;48.702;9.326;2023-08-24T01:37:36;4.83;;;4.40;;
7843;SDS011;3967;48.702;9.326;2023-08-24T01:43:03;5.07;;;4.23;;
7843;SDS011;3967;48.702;9.326;2023-08-24T01:45:33;4.50;;;4.20;;
7843;SDS011;3967;48.702;9.326;2023-08-24T01:48:00;4.93;;;4.53;;
7843;SDS011;3967;48.702;9.326;2023-08-24T01:50:29;4.60;;;4.20;;
7843;SDS011;3967;48.702;9.326;2023-08-24T01:52:57;4.93;;;4.53;;
7843;SDS011;3967;48.702;9.326;2023-08-24T01:55:23;4.93;;;4.53;;
7843;SDS011;3967;48.702;9.326;2023-08-24T01:57:50;6.33;;;4.80;;
7843;SDS011;3967;48.702;9.326;2023-08-24T02:00:17;5.60;;;5.10;;
7843;SDS011;3967;48.702;9.326;2023-08-24T02:02:44;5.47;;;4.97;;
7843;SDS011;3967;48.702;9.326;2023-08-24T02:05:11;4.93;;;4.40;;
7843;SDS011;3967;48.702;9.326;2023-08-24T02:07:38;4.47;;;4.10;;
7843;SDS011;3967;48.702;9.326;2023-08-24T02:10:06;5.00;;;4.60;;
7843;SDS011;3967;48.702;9.326;2023-08-24T02:12:33;5.93;;;4.00;;
7843;SDS011;3967;48.702;9.326;2023-08-24T02:15:00;4.57;;;4.17;;
7843;SDS011;3967;48.702;9.326;2023-08-24T02:17:26;6.50;;;5.37;;
7843;SDS011;3967;48.702;9.326;2023-08-24T02:19:54;5.97;;;4.70;;
7843;SDS011;3967;48.702;9.326;2023-08-24T02:22:21;4.93;;;4.43;;
7843;SDS011;3967;48.702;9.326;2023-08-24T02:24:47;4.83;;;4.43;;
7843;SDS011;3967;48.702;9.326;2023-08-24T02:27:14;4.53;;;4.23;;
7843;SDS011;3967;48.702;9.326;2023-08-24T02:29:41;6.00;;;5.27;;
7843;SDS011;3967;48.702;9.326;2023-08-24T02:32:08;7.07;;;5.30;;
7843;SDS011;3967;48.702;9.326;2023-08-24T02:34:34;6.03;;;5.43;;
7843;SDS011;3967;48.702;9.326;2023-08-24T02:37:01;7.73;;;5.40;;
7843;SDS011;3967;48.702;9.326;2023-08-24T02:39:28;5.63;;;5.10;;
7843;SDS011;3967;48.702;9.326;2023-08-24T02:41:54;5.93;;;5.33;;
7843;SDS011;3967;48.702;9.326;2023-08-24T02:44:21;6.17;;;5.03;;
7843;SDS011;3967;48.702;9.326;2023-08-24T02:46:48;6.30;;;5.07;;
7843;SDS011;3967;48.702;9.326;2023-08-24T02:49:15;6.17;;;5.57;;
7843;SDS011;3967;48.702;9.326;2023-08-24T02:51:41;7.47;;;5.40;;
7843;SDS011;3967;48.702;9.326;2023-08-24T02:54:08;5.10;;;4.60;;
7843;SDS011;3967;48.702;9.326;2023-08-24T02:56:35;5.17;;;4.73;;
7843;SDS011;3967;48.702;9.326;2023-08-24T02:59:01;6.13;;;4.53;;
7843;SDS011;3967;48.702;9.326;2023-08-24T03:01:28;5.43;;;4.93;;
7843;SDS011;3967;48.702;9.326;2023-08-24T03:03:56;4.90;;;4.33;;
7843;SDS011;3967;48.702;9.326;2023-08-24T03:06:22;4.73;;;4.33;;
7843;SDS011;3967;48.702;9.326;2023-08-24T03:08:52;5.10;;;4.60;;
7843;SDS011;3967;48.702;9.326;2023-08-24T03:11:19;5.43;;;4.93;;
7843;SDS011;3967;48.702;9.326;2023-08-24T03:13:45;5.30;;;4.60;;
7843;SDS011;3967;48.702;9.326;2023-08-24T03:16:12;5.77;;;5.27;;
7843;SDS011;3967;48.702;9.326;2023-08-24T03:18:39;5.63;;;5.13;;
7843;SDS011;3967;48.702;9.326;2023-08-24T03:21:06;5.50;;;4.97;;
7843;SDS011;3967;48.702;9.326;2023-08-24T03:23:33;6.57;;;4.93;;
7843;SDS011;3967;48.702;9.326;2023-08-24T03:25:59;5.53;;;5.03;;
7843;SDS011;3967;48.702;9.326;2023-08-24T03:28:26;5.50;;;5.07;;
7843;SDS011;3967;48.702;9.326;2023-08-24T03:30:53;5.23;;;4.80;;
7843;SDS011;3967;48.702;9.326;2023-08-24T03:33:22;6.10;;;5.70;;
7843;SDS011;3967;48.702;9.326;2023-08-24T03:35:48;5.00;;;4.60;;
7843;SDS011;3967;48.702;9.326;2023-08-24T03:38:15;7.70;;;5.17;;
7843;SDS011;3967;48.702;9.326;2023-08-24T03:40:42;5.77;;;5.10;;
7843;SDS011;3967;48.702;9.326;2023-08-24T03:43:09;6.10;;;5.50;;
7843;SDS011;3967;48.702;9.326;2023-08-24T03:45:36;5.07;;;4.57;;
7843;SDS011;3967;48.702;9.326;2023-08-24T03:48:03;6.10;;;5.57;;
7843;SDS011;3967;48.702;9.326;2023-08-24T03:50:30;6.47;;;5.87;;
7843;SDS011;3967;48.702;9.326;2023-08-24T03:52:57;7.20;;;6.30;;
7843;SDS011;3967;48.702;9.326;2023-08-24T03:55:24;10.50;;;7.33;;
7843;SDS011;3967;48.702;9.326;2023-08-24T03:57:51;6.53;;;5.87;;
7843;SDS011;3967;48.702;9.326;2023-08-24T04:00:18;6.10;;;5.27;;
7843;SDS011;3967;48.702;9.326;2023-08-24T04:02:46;5.53;;;5.03;;
7843;SDS011;3967;48.702;9.326;2023-08-24T04:05:13;7.23;;;5.67;;
7843;SDS011;3967;48.702;9.326;2023-08-24T04:07:39;8.40;;;7.67;;
7843;SDS011;3967;48.702;9.326;2023-08-24T04:10:07;6.50;;;5.87;;
7843;SDS011;3967;48.702;9.326;2023-08-24T04:12:35;6.33;;;5.80;;
7843;SDS011;3967;48.702;9.326;2023-08-24T04:15:02;6.70;;;6.20;;
7843;SDS011;3967;48.702;9.326;2023-08-24T04:17:31;7.67;;;6.80;;
7843;SDS011;3967;48.702;9.326;2023-08-24T04:19:58;7.80;;;5.73;;
7843;SDS011;3967;48.702;9.326;2023-08-24T04:22:24;8.13;;;7.33;;
7843;SDS011;3967;48.702;9.326;2023-08-24T04:24:51;6.90;;;6.20;;
7843;SDS011;3967;48.702;9.326;2023-08-24T04:27:18;6.77;;;6.10;;
7843;SDS011;3967;48.702;9.326;2023-08-24T04:29:45;7.20;;;6.37;;
7843;SDS011;3967;48.702;9.326;2023-08-24T04:32:11;7.03;;;6.43;;
7843;SDS011;3967;48.702;9.326;2023-08-24T04:34:38;6.90;;;6.30;;
7843;SDS011;3967;48.702;9.326;2023-08-24T04:37:05;6.70;;;6.10;;
7843;SDS011;3967;48.702;9.326;2023-08-24T04:39:33;7.37;;;6.57;;
7843;SDS011;3967;48.702;9.326;2023-08-24T04:41:59;6.50;;;6.00;;
7843;SDS011;3967;48.702;9.326;2023-08-24T04:44:26;7.63;;;6.93;;
7843;SDS011;3967;48.702;9.326;2023-08-24T04:46:53;6.90;;;6.23;;
7843;SDS011;3967;48.702;9.326;2023-08-24T04:49:20;6.20;;;5.70;;
7843;SDS011;3967;48.702;9.326;2023-08-24T04:51:46;6.60;;;6.03;;
7843;SDS011;3967;48.702;9.326;2023-08-24T04:54:13;7.53;;;6.03;;
7843;SDS011;3967;48.702;9.326;2023-08-24T04:56:40;5.87;;;5.37;;
7843;SDS011;3967;48.702;9.326;2023-08-24T04:59:07;7.57;;;5.43;;
7843;SDS011;3967;48.702;9.326;2023-08-24T05:01:34;5.80;;;5.30;;
7843;SDS011;3967;48.702;9.326;2023-08-24T05:04:01;7.17;;;5.60;;
7843;SDS011;3967;48.702;9.326;2023-08-24T05:06:27;6.77;;;5.90;;
7843;SDS011;3967;48.702;9.326;2023-08-24T05:08:54;10.23;;;6.40;;
7843;SDS011;3967;48.702;9.326;2023-08-24T05:11:28;7.17;;;5.77;;
7843;SDS011;3967;48.702;9.326;2023-08-24T05:13:57;5.30;;;4.90;;
7843;SDS011;3967;48.702;9.326;2023-08-24T05:16:24;6.13;;;5.20;;
7843;SDS011;3967;48.702;9.326;2023-08-24T05:18:51;11.73;;;5.77;;
7843;SDS011;3967;48.702;9.326;2023-08-24T05:21:18;5.07;;;4.77;;
7843;SDS011;3967;48.702;9.326;2023-08-24T05:23:45;7.60;;;5.23;;
7843;SDS011;3967;48.702;9.326;2023-08-24T05:26:12;7.27;;;5.77;;
7843;SDS011;3967;48.702;9.326;2023-08-24T05:28:38;7.00;;;5.80;;
7843;SDS011;3967;48.702;9.326;2023-08-24T05:31:05;6.17;;;5.50;;
7843;SDS011;3967;48.702;9.326;2023-08-24T05:33:32;6.33;;;5.60;;
7843;SDS011;3967;48.702;9.326;2023-08-24T05:35:59;6.10;;;5.60;;
7843;SDS011;3967;48.702;9.326;2023-08-24T05:38:26;6.90;;;6.20;;
7843;SDS011;3967;48.702;9.326;2023-08-24T05:40:53;7.90;;;6.20;;
7843;SDS011;3967;48.702;9.326;2023-08-24T05:43:20;7.63;;;6.80;;
7843;SDS011;3967;48.702;9.326;2023-08-24T05:45:47;6.83;;;6.30;;
7843;SDS011;3967;48.702;9.326;2023-08-24T05:48:14;7.83;;;6.07;;
7843;SDS011;3967;48.702;9.326;2023-08-24T05:50:42;7.53;;;6.10;;
7843;SDS011;3967;48.702;9.326;2023-08-24T05:53:12;6.37;;;5.80;;
7843;SDS011;3967;48.702;9.326;2023-08-24T05:55:40;6.33;;;5.77;;
7843;SDS011;3967;48.702;9.326;2023-08-24T05:58:06;7.03;;;6.43;;
7843;SDS011;3967;48.702;9.326;2023-08-24T06:00:34;6.00;;;5.50;;
7843;SDS011;3967;48.702;9.326;2023-08-24T06:03:01;5.97;;;5.43;;
7843;SDS011;3967;48.702;9.326;2023-08-24T06:05:29;6.87;;;6.13;;
7843;SDS011;3967;48.702;9.326;2023-08-24T06:07:57;6.03;;;5.43;;
7843;SDS011;3967;48.702;9.326;2023-08-24T06:10:25;6.70;;;5.87;;
7843;SDS011;3967;48.702;9.326;2023-08-24T06:12:53;6.23;;;5.70;;
7843;SDS011;3967;48.702;9.326;2023-08-24T06:15:20;9.93;;;6.03;;
7843;SDS011;3967;48.702;9.326;2023-08-24T06:17:50;7.30;;;6.37;;
7843;SDS011;3967;48.702;9.326;2023-08-24T06:20:17;6.40;;;5.80;;
7843;SDS011;3967;48.702;9.326;2023-08-24T06:22:45;6.87;;;6.27;;
7843;SDS011;3967;48.702;9.326;2023-08-24T06:25:12;6.07;;;5.20;;
7843;SDS011;3967;48.702;9.326;2023-08-24T06:27:39;6.87;;;6.13;;
7843;SDS011;3967;48.702;9.326;2023-08-24T06:30:06;6.70;;;5.77;;
7843;SDS011;3967;48.702;9.326;2023-08-24T06:32:33;6.70;;;6.10;;
7843;SDS011;3967;48.702;9.326;2023-08-24T06:35:00;5.90;;;5.03;;
7843;SDS011;3967;48.702;9.326;2023-08-24T06:37:27;5.23;;;4.83;;
7843;SDS011;3967;48.702;9.326;2023-08-24T06:39:53;6.37;;;5.13;;
7843;SDS011;3967;48.702;9.326;2023-08-24T06:42:20;6.77;;;6.07;;
7843;SDS011;3967;48.702;9.326;2023-08-24T06:44:47;5.77;;;5.07;;
7843;SDS011;3967;48.702;9.326;2023-08-24T06:47:16;6.47;;;4.90;;
7843;SDS011;3967;48.702;9.326;2023-08-24T06:49:43;5.20;;;4.50;;
7843;SDS011;3967;48.702;9.326;2023-08-24T06:52:09;5.20;;;4.80;;
7843;SDS011;3967;48.702;9.326;2023-08-24T06:54:36;8.40;;;5.07;;
7843;SDS011;3967;48.702;9.326;2023-08-24T06:57:03;5.63;;;5.03;;
7843;SDS011;3967;48.702;9.326;2023-08-24T06:59:30;6.37;;;5.00;;
7843;SDS011;3967;48.702;9.326;2023-08-24T07:01:57;6.30;;;5.77;;
7843;SDS011;3967;48.702;9.326;2023-08-24T07:04:25;6.63;;;6.03;;
7843;SDS011;3967;48.702;9.326;2023-08-24T07:06:53;6.07;;;5.53;;
7843;SDS011;3967;48.702;9.326;2023-08-24T07:09:19;6.70;;;6.10;;
7843;SDS011;3967;48.702;9.326;2023-08-24T07:11:47;7.80;;;5.23;;
7843;SDS011;3967;48.702;9.326;2023-08-24T07:14:14;6.60;;;5.30;;
7843;SDS011;3967;48.702;9.326;2023-08-24T07:16:41;6.10;;;5.40;;
7843;SDS011;3967;48.702;9.326;2023-08-24T07:19:08;7.40;;;5.87;;
7843;SDS011;3967;48.702;9.326;2023-08-24T07:21:35;5.80;;;5.30;;
7843;SDS011;3967;48.702;9.326;2023-08-24T07:24:02;6.37;;;5.70;;
7843;SDS011;3967;48.702;9.326;2023-08-24T07:26:30;6.00;;;5.27;;
7843;SDS011;3967;48.702;9.326;2023-08-24T07:28:57;7.73;;;5.37;;
7843;SDS011;3967;48.702;9.326;2023-08-24T07:31:24;5.67;;;5.03;;
7843;SDS011;3967;48.702;9.326;2023-08-24T07:33:51;4.80;;;4.40;;
7843;SDS011;3967;48.702;9.326;2023-08-24T07:36:18;7.07;;;4.97;;
7843;SDS011;3967;48.702;9.326;2023-08-24T07:38:45;7.13;;;5.10;;
7843;SDS011;3967;48.702;9.326;2023-08-24T07:41:15;7.60;;;5.57;;
7843;SDS011;3967;48.702;9.326;2023-08-24T07:43:44;5.33;;;4.70;;
7843;SDS011;3967;48.702;9.326;2023-08-24T07:46:11;5.80;;;4.73;;
7843;SDS011;3967;48.702;9.326;2023-08-24T07:48:38;8.03;;;4.33;;
7843;SDS011;3967;48.702;9.326;2023-08-24T07:51:05;5.27;;;4.70;;
7843;SDS011;3967;48.702;9.326;2023-08-24T07:53:32;7.43;;;5.10;;
7843;SDS011;3967;48.702;9.326;2023-08-24T07:55:59;7.47;;;4.97;;
7843;SDS011;3967;48.702;9.326;2023-08-24T07:58:27;5.93;;;4.87;;
7843;SDS011;3967;48.702;9.326;2023-08-24T08:00:54;4.40;;;3.87;;
7843;SDS011;3967;48.702;9.326;2023-08-24T08:03:22;8.00;;;4.87;;
7843;SDS011;3967;48.702;9.326;2023-08-24T08:05:49;5.30;;;4.07;;
7843;SDS011;3967;48.702;9.326;2023-08-24T08:08:16;7.83;;;4.10;;
7843;SDS011;3967;48.702;9.326;2023-08-24T08:10:42;4.83;;;3.53;;
7843;SDS011;3967;48.702;9.326;2023-08-24T08:13:09;5.40;;;3.60;;
7843;SDS011;3967;48.702;9.326;2023-08-24T08:15:39;5.43;;;3.10;;
7843;SDS011;3967;48.702;9.326;2023-08-24T08:18:06;8.65;;;4.03;;
7843;SDS011;3967;48.702;9.326;2023-08-24T08:20:33;3.80;;;3.35;;
7843;SDS011;3967;48.702;9.326;2023-08-24T08:22:59;11.43;;;3.80;;
7843;SDS011;3967;48.702;9.326;2023-08-24T08:25:26;4.85;;;3.65;;
7843;SDS011;3967;48.702;9.326;2023-08-24T08:27:54;5.65;;;3.95;;
7843;SDS011;3967;48.702;9.326;2023-08-24T08:30:21;6.93;;;3.60;;
7843;SDS011;3967;48.702;9.326;2023-08-24T08:32:48;21.50;;;4.95;;
7843;SDS011;3967;48.702;9.326;2023-08-24T08:35:18;8.88;;;4.32;;
7843;SDS011;3967;48.702;9.326;2023-08-24T08:37:45;6.70;;;3.90;;
7843;SDS011;3967;48.702;9.326;2023-08-24T08:40:12;5.22;;;3.70;;
7843;SDS011;3967;48.702;9.326;2023-08-24T08:42:39;5.15;;;3.40;;
7843;SDS011;3967;48.702;9.326;2023-08-24T08:45:10;5.63;;;3.50;;
7843;SDS011;3967;48.702;9.326;2023-08-24T08:47:37;6.35;;;2.85;;
7843;SDS011;3967;48.702;9.326;2023-08-24T08:50:04;13.32;;;3.80;;
7843;SDS011;3967;48.702;9.326;2023-08-24T08:52:31;6.72;;;3.35;;
7843;SDS011;3967;48.702;9.326;2023-08-24T08:55:00;3.75;;;3.25;;
7843;SDS011;3967;48.702;9.326;2023-08-24T08:57:27;3.70;;;3.40;;
7843;SDS011;3967;48.702;9.326;2023-08-24T08:59:56;5.13;;;2.88;;
7843;SDS011;3967;48.702;9.326;2023-08-24T09:02:22;10.20;;;3.88;;
7843;SDS011;3967;48.702;9.326;2023-08-24T09:04:50;13.73;;;3.85;;
7843;SDS011;3967;48.702;9.326;2023-08-24T09:07:18;6.50;;;3.40;;
7843;SDS011;3967;48.702;9.326;2023-08-24T09:09:46;9.93;;;3.65;;
7843;SDS011;3967;48.702;9.326;2023-08-24T09:12:13;4.22;;;2.80;;
7843;SDS011;3967;48.702;9.326;2023-08-24T09:14:40;4.57;;;3.15;;
7843;SDS011;3967;48.702;9.326;2023-08-24T09:17:07;7.90;;;3.65;;
7843;SDS011;3967;48.702;9.326;2023-08-24T09:19:34;7.00;;;3.03;;
7843;SDS011;3967;48.702;9.326;2023-08-24T09:22:02;6.07;;;3.20;;
7843;SDS011;3967;48.702;9.326;2023-08-24T09:24:32;28.17;;;4.03;;
7843;SDS011;3967;48.702;9.326;2023-08-24T09:29:50;10.63;;;3.65;;
7843;SDS011;3967;48.702;9.326;2023-08-24T09:32:24;6.65;;;3.05;;
7843;SDS011;3967;48.702;9.326;2023-08-24T09:34:54;8.80;;;3.30;;
7843;SDS011;3967;48.702;9.326;2023-08-24T09:37:21;3.45;;;3.15;;
7843;SDS011;3967;48.702;9.326;2023-08-24T09:39:48;6.07;;;3.30;;
7843;SDS011;3967;48.702;9.326;2023-08-24T09:42:15;4.75;;;3.20;;
7843;SDS011;3967;48.702;9.326;2023-08-24T09:44:54;3.78;;;3.47;;
7843;SDS011;3967;48.702;9.326;2023-08-24T09:47:20;7.10;;;3.22;;
7843;SDS011;3967;48.702;9.326;2023-08-24T09:49:47;3.70;;;3.40;;
7843;SDS011;3967;48.702;9.326;2023-08-24T09:52:15;5.88;;;3.22;;
7843;SDS011;3967;48.702;9.326;2023-08-24T09:54:43;4.18;;;3.50;;
7843;SDS011;3967;48.702;9.326;2023-08-24T09:57:11;4.00;;;3.70;;
7843;SDS011;3967;48.702;9.326;2023-08-24T09:59:39;3.60;;;3.30;;
7843;SDS011;3967;48.702;9.326;2023-08-24T10:02:10;3.47;;;3.17;;
7843;SDS011;3967;48.702;9.326;2023-08-24T10:04:43;4.60;;;3.65;;
7843;SDS011;3967;48.702;9.326;2023-08-24T10:07:11;6.50;;;3.60;;
7843;SDS011;3967;48.702;9.326;2023-08-24T10:09:46;4.43;;;4.03;;
7843;SDS011;3967;48.702;9.326;2023-08-24T10:12:20;5.25;;;3.42;;
7843;SDS011;3967;48.702;9.326;2023-08-24T10:14:53;6.05;;;3.55;;
7843;SDS011;3967;48.702;9.326;2023-08-24T10:17:27;4.15;;;3.75;;
7843;SDS011;3967;48.702;9.326;2023-08-24T10:19:54;4.97;;;3.72;;
7843;SDS011;3967;48.702;9.326;2023-08-24T10:22:23;6.60;;;3.95;;
7843;SDS011;3967;48.702;9.326;2023-08-24T10:24:51;5.95;;;3.83;;
7843;SDS011;3967;48.702;9.326;2023-08-24T10:27:20;4.63;;;3.10;;
7843;SDS011;3967;48.702;9.326;2023-08-24T10:29:52;6.53;;;4.10;;
7843;SDS011;3967;48.702;9.326;2023-08-24T10:32:19;5.32;;;3.70;;
7843;SDS011;3967;48.702;9.326;2023-08-24T10:34:48;4.82;;;3.83;;
7843;SDS011;3967;48.702;9.326;2023-08-24T10:37:16;4.07;;;3.67;;
7843;SDS011;3967;48.702;9.326;2023-08-24T10:39:45;4.25;;;3.95;;
7843;SDS011;3967;48.702;9.326;2023-08-24T10:42:13;4.95;;;3.80;;
7843;SDS011;3967;48.702;9.326;2023-08-24T10:44:43;5.00;;;4.03;;
7843;SDS011;3967;48.702;9.326;2023-08-24T10:52:24;4.53;;;3.78;;
7843;SDS011;3967;48.702;9.326;2023-08-24T10:54:53;4.28;;;3.97;;
7843;SDS011;3967;48.702;9.326;2023-08-24T10:57:24;4.97;;;4.13;;
7843;SDS011;3967;48.702;9.326;2023-08-24T10:59:57;5.85;;;4.50;;
7843;SDS011;3967;48.702;9.326;2023-08-24T11:02:48;26.60;;;5.70;;
7843;SDS011;3967;48.702;9.326;2023-08-24T11:05:29;6.63;;;4.05;;
7843;SDS011;3967;48.702;9.326;2023-08-24T11:08:01;5.57;;;4.20;;
7843;SDS011;3967;48.702;9.326;2023-08-24T11:10:34;8.18;;;4.88;;
7843;SDS011;3967;48.702;9.326;2023-08-24T11:13:16;4.43;;;3.83;;
7843;SDS011;3967;48.702;9.326;2023-08-24T11:15:46;8.77;;;3.95;;
7843;SDS011;3967;48.702;9.326;2023-08-24T11:18:21;4.30;;;4.00;;
7843;SDS011;3967;48.702;9.326;2023-08-24T11:20:56;4.47;;;4.07;;
7843;SDS011;3967;48.702;9.326;2023-08-24T11:23:28;5.03;;;4.47;;
7843;SDS011;3967;48.702;9.326;2023-08-24T11:25:56;4.53;;;4.13;;
7843;SDS011;3967;48.702;9.326;2023-08-24T11:28:25;28.85;;;5.40;;
7843;SDS011;3967;48.702;9.326;2023-08-24T11:30:54;6.43;;;4.22;;
7843;SDS011;3967;48.702;9.326;2023-08-24T11:36:02;4.68;;;3.92;;
7843;SDS011;3967;48.702;9.326;2023-08-24T11:38:36;5.10;;;3.55;;
7843;SDS011;3967;48.702;9.326;2023-08-24T11:41:38;12.68;;;5.53;;
7843;SDS011;3967;48.702;9.326;2023-08-24T11:43:58;21.42;;;6.38;;
7843;SDS011;3967;48.702;9.326;2023-08-24T11:46:37;7.55;;;4.43;;
7843;SDS011;3967;48.702;9.326;2023-08-24T11:49:05;4.38;;;3.90;;
7843;SDS011;3967;48.702;9.326;2023-08-24T11:51:32;5.25;;;4.45;;
7843;SDS011;3967;48.702;9.326;2023-08-24T11:54:09;5.45;;;4.22;;
7843;SDS011;3967;48.702;9.326;2023-08-24T11:56:42;5.22;;;4.45;;
7843;SDS011;3967;48.702;9.326;2023-08-24T11:59:12;5.07;;;4.60;;
7843;SDS011;3967;48.702;9.326;2023-08-24T12:01:40;6.00;;;4.20;;
7843;SDS011;3967;48.702;9.326;2023-08-24T12:04:08;4.97;;;4.05;;
7843;SDS011;3967;48.702;9.326;2023-08-24T12:06:35;4.50;;;4.10;;
7843;SDS011;3967;48.702;9.326;2023-08-24T12:09:04;6.15;;;4.07;;
7843;SDS011;3967;48.702;9.326;2023-08-24T12:11:35;5.28;;;4.75;;
7843;SDS011;3967;48.702;9.326;2023-08-24T12:14:02;15.82;;;4.45;;
7843;SDS011;3967;48.702;9.326;2023-08-24T12:16:30;8.60;;;4.10;;
7843;SDS011;3967;48.702;9.326;2023-08-24T12:18:59;13.05;;;4.75;;
7843;SDS011;3967;48.702;9.326;2023-08-24T12:21:29;7.57;;;4.38;;
7843;SDS011;3967;48.702;9.326;2023-08-24T12:24:00;13.48;;;4.50;;
7843;SDS011;3967;48.702;9.326;2023-08-24T12:26:32;6.20;;;4.15;;
7843;SDS011;3967;48.702;9.326;2023-08-24T12:29:02;12.77;;;3.78;;
7843;SDS011;3967;48.702;9.326;2023-08-24T12:31:32;15.27;;;5.05;;
7843;SDS011;3967;48.702;9.326;2023-08-24T12:34:03;19.80;;;5.20;;
7843;SDS011;3967;48.702;9.326;2023-08-24T12:36:32;8.13;;;4.18;;
7843;SDS011;3967;48.702;9.326;2023-08-24T12:38:59;6.78;;;4.10;;
7843;SDS011;3967;48.702;9.326;2023-08-24T12:41:26;10.15;;;4.05;;
7843;SDS011;3967;48.702;9.326;2023-08-24T12:43:53;7.60;;;3.67;;
7843;SDS011;3967;48.702;9.326;2023-08-24T12:46:20;4.28;;;3.88;;
7843;SDS011;3967;48.702;9.326;2023-08-24T12:48:46;5.90;;;4.05;;
7843;SDS011;3967;48.702;9.326;2023-08-24T12:51:13;4.75;;;3.35;;
7843;SDS011;3967;48.702;9.326;2023-08-24T12:53:40;5.30;;;3.67;;
7843;SDS011;3967;48.702;9.326;2023-08-24T12:56:07;7.63;;;3.90;;
7843;SDS011;3967;48.702;9.326;2023-08-24T12:58:36;5.70;;;3.70;;
7843;SDS011;3967;48.702;9.326;2023-08-24T13:01:02;8.35;;;4.07;;
7843;SDS011;3967;48.702;9.326;2023-08-24T13:03:29;6.53;;;4.15;;
7843;SDS011;3967;48.702;9.326;2023-08-24T13:05:56;6.03;;;3.50;;
7843;SDS011;3967;48.702;9.326;2023-08-24T13:08:38;6.25;;;3.53;;
7843;SDS011;3967;48.702;9.326;2023-08-24T13:11:05;5.97;;;3.97;;
7843;SDS011;3967;48.702;9.326;2023-08-24T13:13:32;7.50;;;4.10;;
7843;SDS011;3967;48.702;9.326;2023-08-24T13:15:58;4.45;;;3.58;;
7843;SDS011;3967;48.702;9.326;2023-08-24T13:18:25;8.65;;;3.80;;
7843;SDS011;3967;48.702;9.326;2023-08-24T13:20:52;9.88;;;3.70;;
7843;SDS011;3967;48.702;9.326;2023-08-24T13:23:19;5.63;;;3.63;;
7843;SDS011;3967;48.702;9.326;2023-08-24T13:25:45;9.43;;;3.80;;
7843;SDS011;3967;48.702;9.326;2023-08-24T13:28:12;8.63;;;3.42;;
7843;SDS011;3967;48.702;9.326;2023-08-24T13:30:39;23.67;;;6.18;;
7843;SDS011;3967;48.702;9.326;2023-08-24T13:33:06;23.50;;;3.90;;
7843;SDS011;3967;48.702;9.326;2023-08-24T13:35:34;8.13;;;3.45;;
7843;SDS011;3967;48.702;9.326;2023-08-24T13:38:01;4.88;;;4.00;;
7843;SDS011;3967;48.702;9.326;2023-08-24T13:40:27;15.48;;;5.03;;
7843;SDS011;3967;48.702;9.326;2023-08-24T13:42:54;10.07;;;3.38;;
7843;SDS011;3967;48.702;9.326;2023-08-24T13:45:21;5.78;;;3.55;;
7843;SDS011;3967;48.702;9.326;2023-08-24T13:47:47;16.40;;;3.97;;
7843;SDS011;3967;48.702;9.326;2023-08-24T13:50:14;5.90;;;3.60;;
7843;SDS011;3967;48.702;9.326;2023-08-24T13:52:41;7.63;;;3.40;;
7843;SDS011;3967;48.702;9.326;2023-08-24T13:55:08;5.43;;;3.40;;
7843;SDS011;3967;48.702;9.326;2023-08-24T13:57:38;8.73;;;3.33;;
7843;SDS011;3967;48.702;9.326;2023-08-24T14:00:05;9.98;;;3.90;;
7843;SDS011;3967;48.702;9.326;2023-08-24T14:02:35;6.60;;;3.63;;
7843;SDS011;3967;48.702;9.326;2023-08-24T14:05:02;5.25;;;3.25;;
7843;SDS011;3967;48.702;9.326;2023-08-24T14:07:29;13.90;;;4.63;;
7843;SDS011;3967;48.702;9.326;2023-08-24T14:09:56;9.55;;;3.83;;
7843;SDS011;3967;48.702;9.326;2023-08-24T14:12:31;14.27;;;4.00;;
7843;SDS011;3967;48.702;9.326;2023-08-24T14:14:58;6.60;;;3.20;;
7843;SDS011;3967;48.702;9.326;2023-08-24T14:17:25;7.75;;;3.33;;
7843;SDS011;3967;48.702;9.326;2023-08-24T14:19:52;14.88;;;4.45;;
7843;SDS011;3967;48.702;9.326;2023-08-24T14:22:19;8.55;;;3.35;;
7843;SDS011;3967;48.702;9.326;2023-08-24T14:24:45;5.47;;;2.88;;
7843;SDS011;3967;48.702;9.326;2023-08-24T14:27:12;4.88;;;3.40;;
7843;SDS011;3967;48.702;9.326;2023-08-24T14:29:39;4.70;;;3.40;;
7843;SDS011;3967;48.702;9.326;2023-08-24T14:32:05;5.68;;;3.50;;
7843;SDS011;3967;48.702;9.326;2023-08-24T14:34:32;12.57;;;3.60;;
7843;SDS011;3967;48.702;9.326;2023-08-24T14:37:00;6.55;;;2.78;;
7843;SDS011;3967;48.702;9.326;2023-08-24T14:39:27;6.90;;;3.05;;
7843;SDS011;3967;48.702;9.326;2023-08-24T14:41:53;4.28;;;2.90;;
7843;SDS011;3967;48.702;9.326;2023-08-24T14:44:20;6.05;;;3.10;;
7843;SDS011;3967;48.702;9.326;2023-08-24T14:46:47;9.40;;;3.25;;
7843;SDS011;3967;48.702;9.326;2023-08-24T14:49:14;6.53;;;3.05;;
7843;SDS011;3967;48.702;9.326;2023-08-24T14:51:45;6.18;;;3.15;;
7843;SDS011;3967;48.702;9.326;2023-08-24T14:54:13;10.35;;;3.97;;
7843;SDS011;3967;48.702;9.326;2023-08-24T14:56:41;10.48;;;3.85;;
7843;SDS011;3967;48.702;9.326;2023-08-24T14:59:07;6.20;;;3.97;;
7843;SDS011;3967;48.702;9.326;2023-08-24T15:01:34;9.10;;;3.92;;
7843;SDS011;3967;48.702;9.326;2023-08-24T15:04:01;7.78;;;3.65;;
7843;SDS011;3967;48.702;9.326;2023-08-24T15:06:28;10.10;;;3.42;;
7843;SDS011;3967;48.702;9.326;2023-08-24T15:08:55;7.10;;;3.83;;
7843;SDS011;3967;48.702;9.326;2023-08-24T15:11:22;5.28;;;3.13;;
7843;SDS011;3967;48.702;9.326;2023-08-24T15:13:49;6.90;;;4.03;;
7843;SDS011;3967;48.702;9.326;2023-08-24T15:16:15;9.13;;;3.65;;
7843;SDS011;3967;48.702;9.326;2023-08-24T15:18:42;24.80;;;5.15;;
7843;SDS011;3967;48.702;9.326;2023-08-24T15:21:09;71.20;;;8.73;;
7843;SDS011;3967;48.702;9.326;2023-08-24T15:23:36;34.60;;;5.25;;
7843;SDS011;3967;48.702;9.326;2023-08-24T15:26:03;15.88;;;3.88;;
7843;SDS011;3967;48.702;9.326;2023-08-24T15:28:36;8.05;;;2.67;;
7843;SDS011;3967;48.702;9.326;2023-08-24T15:31:23;5.13;;;2.08;;
7843;SDS011;3967;48.702;9.326;2023-08-24T15:33:50;6.07;;;2.50;;
7843;SDS011;3967;48.702;9.326;2023-08-24T15:36:17;5.38;;;2.60;;
7843;SDS011;3967;48.702;9.326;2023-08-24T15:38:44;7.40;;;2.55;;
7843;SDS011;3967;48.702;9.326;2023-08-24T15:41:10;5.38;;;2.65;;